Time;durP1;ratioP1;P1;durP2;ratioP2;P2;SDS_P1;SDS_P2;PMS_P1;PMS_P2;Temp;Humidity;BMP_temperature;BMP_pressure;BME280_temperature;BME280_humidity;BME280_pressure;Samples;Min_cycle;Max_cycle;Signal;HPM_P1;HPM_P2
2022/04/08 00:01:01;;;;;;;14.10;2.95;;;;;;;6.33;69.74;97562.84;4997355;28;20041;-50
2022/04/08 00:03:27;;;;;;;12.73;2.58;;;;;;;6.35;69.61;97579.38;4998213;28;20113;-51
2022/04/08 00:05:54;;;;;;;16.17;2.97;;;;;;;6.35;69.06;97582.03;4994635;28;20515;-50
2022/04/08 00:08:19;;;;;;;14.75;2.83;;;;;;;6.44;67.68;97585.78;4992190;28;20034;-51
2022/04/08 00:10:45;;;;;;;12.68;2.70;;;;;;;6.48;67.57;97605.53;5003839;28;20104;-49
2022/04/08 00:13:10;;;;;;;14.63;2.90;;;;;;;6.57;67.64;97617.31;4995841;28;20069;-52
2022/04/08 00:15:38;;;;;;;6.93;2.15;;;;;;;5.91;72.99;97620.19;4997104;28;20042;-54
2022/04/08 00:18:06;;;;;;;7.30;1.70;;;;;;;4.93;77.97;97641.38;4994597;28;20116;-51
2022/04/08 00:20:34;;;;;;;3.83;1.60;;;;;;;4.41;82.16;97645.09;4990053;28;20125;-52
2022/04/08 00:23:01;;;;;;;3.72;1.52;;;;;;;4.15;84.96;97638.59;4996841;28;20034;-52
2022/04/08 00:25:27;;;;;;;1.75;1.30;;;;;;;4.02;86.24;97638.88;4989563;28;20038;-49
2022/04/08 00:27:52;;;;;;;2.75;1.27;;;;;;;3.90;86.85;97638.94;4995389;28;20565;-51
2022/04/08 00:30:17;;;;;;;1.80;1.48;;;;;;;3.91;87.83;97661.75;4998536;28;20548;-51
2022/04/08 00:32:43;;;;;;;2.08;1.45;;;;;;;3.95;88.02;97667.41;4993959;28;20030;-52
2022/04/08 00:35:11;;;;;;;3.60;1.75;;;;;;;3.88;89.11;97678.13;4997553;28;20558;-54
2022/04/08 00:37:37;;;;;;;2.67;1.90;;;;;;;3.91;90.05;97676.88;4996819;28;20429;-52
2022/04/08 00:40:03;;;;;;;3.42;1.98;;;;;;;3.70;90.56;97660.59;4991127;28;20033;-50
2022/04/08 00:42:28;;;;;;;3.97;1.73;;;;;;;3.68;90.54;97668.75;4990078;28;20034;-51
2022/04/08 00:44:54;;;;;;;3.17;1.60;;;;;;;3.68;91.31;97658.16;4990364;28;20031;-50
2022/04/08 00:47:19;;;;;;;2.47;1.90;;;;;;;3.66;90.86;97678.78;4990613;28;20038;-54
2022/04/08 00:49:44;;;;;;;3.05;1.90;;;;;;;3.63;90.83;97689.06;4990914;28;20041;-52
2022/04/08 00:52:10;;;;;;;3.60;1.50;;;;;;;3.62;90.82;97685.63;4989084;28;20133;-51
2022/04/08 00:54:35;;;;;;;5.05;1.80;;;;;;;3.64;90.72;97694.13;4996767;28;20034;-53
2022/04/08 00:57:02;;;;;;;3.28;1.90;;;;;;;3.76;90.35;97711.84;5004664;28;20049;-50
2022/04/08 00:59:27;;;;;;;4.30;2.00;;;;;;;3.68;92.91;97724.41;4973058;28;20030;-53
2022/04/08 01:01:53;;;;;;;2.88;2.00;;;;;;;3.51;94.57;97709.47;4997718;28;20049;-51
2022/04/08 01:04:21;;;;;;;7.18;2.10;;;;;;;3.41;95.08;97687.03;4995064;28;20164;-53
2022/04/08 01:06:46;;;;;;;3.90;1.83;;;;;;;3.40;95.67;97705.81;4996276;28;20034;-52
2022/04/08 01:09:11;;;;;;;3.53;2.00;;;;;;;3.36;95.32;97718.72;4997974;28;20103;-50
2022/04/08 01:11:37;;;;;;;3.53;2.10;;;;;;;3.26;95.36;97730.94;4995251;28;20049;-51
2022/04/08 01:14:13;;;;;;;3.38;1.92;;;;;;;3.33;95.11;97750.97;4992896;28;20053;-52
2022/04/08 01:16:38;;;;;;;6.63;2.17;;;;;;;3.28;96.22;97734.97;4991147;28;20042;-55
2022/04/08 01:19:04;;;;;;;3.72;2.13;;;;;;;3.30;96.00;97740.84;4996013;28;20026;-52
2022/04/08 01:21:31;;;;;;;2.28;1.60;;;;;;;3.37;94.44;97730.09;4992089;28;20034;-53
2022/04/08 01:23:57;;;;;;;2.78;1.80;;;;;;;3.30;94.61;97740.03;4996631;28;20507;-52
2022/04/08 01:26:22;;;;;;;4.15;1.83;;;;;;;3.26;94.23;97734.38;4956696;28;20191;-52
2022/04/08 01:28:48;;;;;;;4.07;2.05;;;;;;;3.29;94.20;97706.63;4990029;28;20101;-55
2022/04/08 01:31:13;;;;;;;6.13;2.00;;;;;;;3.29;94.46;97709.28;4992838;28;20043;-53
2022/04/08 01:33:39;;;;;;;7.70;2.08;;;;;;;3.33;93.52;97707.78;4994523;28;20034;-52
2022/04/08 01:36:04;;;;;;;7.03;1.90;;;;;;;3.35;94.03;97705.72;5000897;28;20056;-53
2022/04/08 01:38:30;;;;;;;3.80;2.05;;;;;;;3.44;92.90;97699.00;4996444;28;20477;-53
2022/04/08 01:40:55;;;;;;;3.40;1.70;;;;;;;3.48;90.83;97712.59;4990055;28;20094;-51
2022/04/08 01:43:21;;;;;;;2.10;1.60;;;;;;;3.60;90.25;97708.88;4997281;28;20026;-51
2022/04/08 01:45:46;;;;;;;6.03;1.67;;;;;;;3.61;90.61;97713.13;4992700;28;20046;-52
2022/04/08 01:48:11;;;;;;;5.65;1.85;;;;;;;3.62;90.11;97721.88;4995529;28;20429;-53
2022/04/08 01:50:37;;;;;;;6.53;2.17;;;;;;;3.62;89.99;97722.72;4999584;28;20042;-54
2022/04/08 01:53:02;;;;;;;8.20;1.98;;;;;;;3.59;89.90;97712.56;4989478;28;20408;-54
2022/04/08 01:55:28;;;;;;;7.40;1.67;;;;;;;3.52;90.74;97721.66;4995558;28;20046;-54
2022/04/08 01:57:53;;;;;;;3.03;1.63;;;;;;;3.48;90.87;97724.00;5001404;28;20030;-54
2022/04/08 02:00:19;;;;;;;5.80;1.80;;;;;;;3.41;91.24;97720.66;4992760;28;20042;-54
2022/04/08 02:02:45;;;;;;;4.07;1.88;;;;;;;3.51;90.75;97720.88;4992167;28;20076;-54
2022/04/08 02:05:11;;;;;;;5.75;1.50;;;;;;;3.46;90.95;97736.66;4995715;28;20453;-51
2022/04/08 02:07:36;;;;;;;2.95;1.80;;;;;;;3.53;89.48;97734.69;4994775;28;20064;-53
2022/04/08 02:10:02;;;;;;;3.60;1.63;;;;;;;3.58;89.09;97737.44;4996234;28;20030;-51
2022/04/08 02:12:27;;;;;;;2.42;1.70;;;;;;;3.50;90.10;97731.72;4991975;28;20030;-52
2022/04/08 02:14:54;;;;;;;3.15;1.80;;;;;;;3.54;89.58;97736.28;4988913;28;20392;-52
2022/04/08 02:17:19;;;;;;;4.78;1.50;;;;;;;3.52;89.84;97746.34;4989273;28;20492;-52
2022/04/08 02:19:45;;;;;;;6.15;1.80;;;;;;;3.53;89.71;97755.09;4989463;28;20033;-54
2022/04/08 02:22:10;;;;;;;4.90;1.65;;;;;;;3.51;90.01;97771.22;4989449;28;20447;-51
2022/04/08 02:24:36;;;;;;;3.67;1.50;;;;;;;3.49;89.93;97762.69;4977001;28;20596;-51
2022/04/08 02:27:03;;;;;;;5.93;1.70;;;;;;;3.52;90.59;97770.19;4992902;28;20046;-52
2022/04/08 02:29:29;;;;;;;3.47;1.75;;;;;;;3.53;89.22;97771.78;4997437;28;20069;-52
2022/04/08 02:31:56;;;;;;;3.15;2.03;;;;;;;3.53;89.54;97761.19;4997244;28;20408;-51
2022/04/08 02:34:25;;;;;;;2.65;1.80;;;;;;;3.56;89.36;97770.50;4997457;28;20377;-52
2022/04/08 02:36:51;;;;;;;2.80;1.70;;;;;;;3.61;89.34;97778.56;4990260;28;20042;-52
2022/04/08 02:39:17;;;;;;;3.80;1.83;;;;;;;3.54;89.21;97778.69;4989474;28;20060;-51
2022/04/08 02:41:42;;;;;;;3.38;1.70;;;;;;;3.63;88.50;97777.28;4992546;28;20493;-53
2022/04/08 02:44:08;;;;;;;5.00;1.73;;;;;;;3.56;88.80;97779.25;4992412;28;20042;-54
2022/04/08 02:46:34;;;;;;;6.20;1.83;;;;;;;3.56;88.42;97779.25;4999644;28;20042;-51
2022/04/08 02:49:00;;;;;;;2.90;1.75;;;;;;;3.55;88.34;97772.38;4989100;28;20105;-52
2022/04/08 02:51:25;;;;;;;5.15;1.77;;;;;;;3.60;88.13;97783.06;4996941;28;20053;-54
2022/04/08 02:53:50;;;;;;;4.60;1.70;;;;;;;3.59;88.08;97778.78;4994532;28;20182;-54
2022/04/08 02:56:16;;;;;;;3.92;1.80;;;;;;;3.58;88.29;97779.84;4992319;28;20042;-53
2022/04/08 02:58:41;;;;;;;2.88;1.83;;;;;;;3.53;88.79;97781.59;4989160;28;20038;-54
2022/04/08 03:01:07;;;;;;;5.50;3.13;;;;;;;3.58;88.66;97785.13;4988464;28;20120;-55
2022/04/08 03:03:32;;;;;;;2.38;1.77;;;;;;;3.60;88.22;97788.38;4992297;28;20034;-51
2022/04/08 03:05:58;;;;;;;5.40;1.67;;;;;;;3.62;88.90;97796.91;4994358;28;20493;-53
2022/04/08 03:08:23;;;;;;;3.17;1.90;;;;;;;3.58;87.98;97801.03;4996252;28;20100;-54
2022/04/08 03:10:49;;;;;;;4.15;1.92;;;;;;;3.59;88.13;97791.25;4995011;28;20046;-53
2022/04/08 03:13:14;;;;;;;5.20;1.80;;;;;;;3.64;87.54;97794.81;4993674;28;20092;-53
2022/04/08 03:15:40;;;;;;;2.60;1.60;;;;;;;3.71;86.20;97794.69;4988293;28;20044;-51
2022/04/08 03:18:06;;;;;;;7.15;2.00;;;;;;;3.62;86.96;97796.91;4996009;28;20026;-52
2022/04/08 03:20:31;;;;;;;3.17;1.90;;;;;;;3.68;86.72;97811.06;5000758;28;20088;-52
2022/04/08 03:22:57;;;;;;;4.22;2.05;;;;;;;3.61;87.55;97811.16;4988212;28;20065;-52
2022/04/08 03:25:22;;;;;;;3.20;1.98;;;;;;;3.50;88.08;97814.63;5002779;28;20049;-51
2022/04/08 03:27:48;;;;;;;5.22;2.25;;;;;;;3.57;88.12;97803.91;4994598;28;20037;-53
2022/04/08 03:30:13;;;;;;;4.65;2.05;;;;;;;3.57;87.72;97810.03;5020889;28;20503;-52
2022/04/08 03:32:38;;;;;;;2.45;1.83;;;;;;;3.59;87.60;97807.94;4995081;28;20034;-54
2022/04/08 03:35:05;;;;;;;3.90;2.13;;;;;;;3.62;87.49;97811.97;4993901;28;20038;-53
2022/04/08 03:37:30;;;;;;;4.25;2.00;;;;;;;3.65;87.77;97812.31;4991289;28;20113;-52
2022/04/08 03:39:55;;;;;;;3.22;2.10;;;;;;;3.68;87.09;97811.84;4994871;28;20038;-53
2022/04/08 03:42:22;;;;;;;7.55;2.78;;;;;;;3.69;87.31;97807.34;4986544;28;20046;-52
2022/04/08 03:44:49;;;;;;;5.60;2.38;;;;;;;3.64;87.01;97809.88;4986491;28;20164;-54
2022/04/08 03:47:14;;;;;;;7.57;2.58;;;;;;;3.65;87.46;97814.16;4988269;28;20058;-54
2022/04/08 03:49:40;;;;;;;4.72;2.45;;;;;;;3.62;87.11;97819.91;4991660;28;20034;-53
2022/04/08 03:52:05;;;;;;;4.82;2.60;;;;;;;3.63;87.08;97824.19;4999169;28;20056;-54
2022/04/08 03:54:31;;;;;;;5.53;2.60;;;;;;;3.69;88.28;97823.25;4995102;28;20035;-49
2022/04/08 03:56:56;;;;;;;7.43;3.22;;;;;;;3.65;88.45;97828.22;4989889;28;20046;-52
2022/04/08 03:59:22;;;;;;;9.63;4.00;;;;;;;3.71;87.84;97830.97;4988193;28;20034;-51
2022/04/08 04:01:49;;;;;;;8.93;3.50;;;;;;;3.76;87.54;97821.28;4994500;28;20042;-50
2022/04/08 04:04:15;;;;;;;6.80;3.28;;;;;;;3.75;87.33;97824.19;4995515;28;20034;-51
2022/04/08 04:06:40;;;;;;;4.88;2.72;;;;;;;3.64;87.89;97823.97;4992588;28;20494;-51
2022/04/08 04:09:06;;;;;;;5.65;2.90;;;;;;;3.64;88.55;97821.31;4994224;28;20034;-52
2022/04/08 04:11:33;;;;;;;11.65;3.70;;;;;;;3.66;88.59;97827.16;4999954;28;20034;-53
2022/04/08 04:13:59;;;;;;;7.22;2.88;;;;;;;3.60;89.69;97836.06;4998713;28;20119;-52
2022/04/08 04:16:25;;;;;;;8.85;3.40;;;;;;;3.59;89.33;97836.28;4995794;28;20062;-52
2022/04/08 04:18:50;;;;;;;7.10;3.42;;;;;;;3.64;89.59;97836.38;4991843;28;20460;-52
2022/04/08 04:21:15;;;;;;;4.35;3.17;;;;;;;3.57;89.68;97831.22;4997463;28;20041;-52
2022/04/08 04:23:41;;;;;;;7.57;3.50;;;;;;;3.54;89.70;97836.16;4994470;28;20027;-52
2022/04/08 04:26:06;;;;;;;7.82;3.45;;;;;;;3.55;89.44;97840.44;4997349;28;20469;-49
2022/04/08 04:28:32;;;;;;;7.53;3.58;;;;;;;3.57;89.25;97836.53;4992499;28;20042;-51
2022/04/08 04:31:03;;;;;;;7.05;3.70;;;;;;;3.63;89.17;97827.63;4996684;28;20052;-51
2022/04/08 04:33:31;;;;;;;7.82;4.20;;;;;;;3.62;88.70;97834.00;5001817;28;20484;-53
2022/04/08 04:35:56;;;;;;;8.02;3.75;;;;;;;3.62;88.91;97836.63;4997890;28;20475;-56
2022/04/08 04:38:23;;;;;;;12.05;4.85;;;;;;;3.61;89.00;97842.16;4992123;28;20034;-49
2022/04/08 04:40:48;;;;;;;9.13;3.45;;;;;;;3.60;89.08;97846.66;5003599;28;20107;-53
2022/04/08 04:43:13;;;;;;;8.90;3.83;;;;;;;3.56;88.88;97858.75;5010178;28;20026;-53
2022/04/08 04:45:39;;;;;;;6.63;3.63;;;;;;;3.54;88.74;97863.47;4999429;28;21237;-53
2022/04/08 04:48:05;;;;;;;8.20;3.90;;;;;;;3.56;88.83;97868.53;4991702;28;20038;-55
2022/04/08 04:50:31;;;;;;;8.27;3.58;;;;;;;3.59;89.14;97866.22;4995118;28;20046;-50
2022/04/08 04:52:56;;;;;;;8.40;4.28;;;;;;;3.53;88.43;97866.34;4994150;28;20040;-51
2022/04/08 04:55:21;;;;;;;10.75;4.28;;;;;;;3.58;88.73;97864.63;5003912;28;20088;-51
2022/04/08 04:57:47;;;;;;;7.57;4.07;;;;;;;3.62;89.05;97855.19;4998420;28;20030;-59
2022/04/08 05:00:13;;;;;;;14.55;4.88;;;;;;;3.65;87.84;97853.91;4991238;28;20023;-53
2022/04/08 05:02:39;;;;;;;7.95;4.45;;;;;;;3.78;87.95;97845.72;5000980;28;20026;-52
2022/04/08 05:05:06;;;;;;;9.18;4.82;;;;;;;3.74;87.53;97843.75;4996388;28;20345;-52
2022/04/08 05:07:31;;;;;;;12.15;4.30;;;;;;;3.83;87.29;97845.03;4995751;28;20061;-52
2022/04/08 05:09:57;;;;;;;9.93;4.35;;;;;;;3.77;87.35;97841.47;4997757;28;20037;-51
2022/04/08 05:12:22;;;;;;;10.70;4.75;;;;;;;3.79;87.42;97834.06;4998991;28;20050;-50
2022/04/08 05:14:48;;;;;;;9.25;4.75;;;;;;;3.85;87.43;97842.94;5000228;28;20071;-52
2022/04/08 05:17:13;;;;;;;7.07;4.68;;;;;;;3.85;86.98;97835.81;4994902;28;20456;-53
2022/04/08 05:19:39;;;;;;;8.10;4.63;;;;;;;3.87;87.07;97841.69;4993993;28;20432;-53
2022/04/08 05:22:04;;;;;;;12.82;5.15;;;;;;;3.87;87.27;97841.69;5001469;28;20107;-51
2022/04/08 05:24:30;;;;;;;11.43;4.95;;;;;;;3.91;87.14;97836.72;5002494;28;20108;-52
2022/04/08 05:26:55;;;;;;;8.35;4.50;;;;;;;3.86;87.25;97840.06;4995286;28;20501;-52
2022/04/08 05:29:20;;;;;;;10.52;4.65;;;;;;;4.00;87.38;97834.50;4994787;28;20276;-50
2022/04/08 05:31:47;;;;;;;9.95;4.93;;;;;;;4.08;86.94;97842.91;4998688;28;20050;-51
2022/04/08 05:34:12;;;;;;;8.50;5.00;;;;;;;4.04;86.81;97846.25;5000787;28;20041;-52
2022/04/08 05:36:38;;;;;;;10.75;5.20;;;;;;;4.02;87.22;97849.16;4997936;28;20039;-51
2022/04/08 05:39:03;;;;;;;12.73;5.40;;;;;;;3.99;86.88;97844.28;4997667;28;20063;-53
2022/04/08 05:41:29;;;;;;;11.05;4.63;;;;;;;4.03;86.54;97839.34;4999808;28;20137;-53
2022/04/08 05:43:54;;;;;;;11.77;5.13;;;;;;;3.98;87.10;97842.69;4993304;28;20053;-52
2022/04/08 05:46:20;;;;;;;14.60;5.28;;;;;;;4.00;86.50;97851.22;4991290;28;20076;-51
2022/04/08 05:48:45;;;;;;;9.85;5.28;;;;;;;4.09;86.53;97849.84;4987087;28;20030;-52
2022/04/08 05:51:10;;;;;;;12.48;7.10;;;;;;;4.14;86.71;97848.31;4993304;28;20065;-50
2022/04/08 05:53:36;;;;;;;17.50;8.07;;;;;;;4.11;87.15;97847.72;4999310;28;20029;-51
2022/04/08 05:56:05;;;;;;;14.27;6.00;;;;;;;4.15;86.58;97848.09;4993305;28;20053;-52
2022/04/08 05:58:31;;;;;;;9.93;5.40;;;;;;;4.10;86.89;97840.81;4989584;28;20045;-52
2022/04/08 06:00:56;;;;;;;10.93;6.82;;;;;;;4.23;86.44;97831.00;4989128;28;20408;-53
2022/04/08 06:03:22;;;;;;;21.50;10.82;;;;;;;4.34;86.89;97830.13;4994318;28;20033;-51
2022/04/08 06:05:47;;;;;;;18.80;9.77;;;;;;;4.32;87.02;97837.53;5001588;28;20489;-53
2022/04/08 06:08:12;;;;;;;12.90;6.97;;;;;;;4.27;87.66;97829.50;4991299;28;20026;-52
2022/04/08 06:10:38;;;;;;;11.10;5.47;;;;;;;4.53;86.53;97828.91;4996713;28;20561;-51
2022/04/08 06:13:03;;;;;;;13.10;5.60;;;;;;;4.45;86.51;97820.53;4989203;28;20040;-54
2022/04/08 06:15:29;;;;;;;11.18;5.43;;;;;;;4.39;86.99;97821.47;4988354;28;20133;-52
2022/04/08 06:17:55;;;;;;;13.38;5.50;;;;;;;4.26;86.97;97817.25;4989085;28;20038;-52
2022/04/08 06:20:20;;;;;;;12.27;4.35;;;;;;;4.33;86.92;97831.19;4997474;28;20053;-53
2022/04/08 06:22:47;;;;;;;11.15;4.72;;;;;;;4.20;87.41;97828.81;4990687;28;20572;-53
2022/04/08 06:25:14;;;;;;;12.45;5.25;;;;;;;4.36;88.06;97822.75;4992992;28;20510;-54
2022/04/08 06:27:40;;;;;;;11.48;4.43;;;;;;;4.37;87.81;97827.03;4990524;28;20485;-52
2022/04/08 06:30:09;;;;;;;12.55;4.80;;;;;;;4.34;87.76;97824.81;4989911;28;20030;-53
2022/04/08 06:32:36;;;;;;;9.23;4.75;;;;;;;4.41;88.22;97817.53;4987747;28;20070;-53
2022/04/08 06:35:02;;;;;;;12.75;5.15;;;;;;;4.38;87.88;97812.72;4994341;28;20432;-50
2022/04/08 06:37:28;;;;;;;13.05;5.35;;;;;;;4.63;88.42;97806.25;4993332;28;20068;-52
2022/04/08 06:39:54;;;;;;;9.05;4.43;;;;;;;4.88;86.21;97808.56;4993546;28;20029;-51
2022/04/08 06:42:19;;;;;;;13.93;4.78;;;;;;;5.09;85.87;97801.72;4996025;28;20372;-51
2022/04/08 06:44:45;;;;;;;10.85;4.75;;;;;;;5.02;84.76;97801.06;4991730;28;20509;-51
2022/04/08 06:47:10;;;;;;;12.60;5.32;;;;;;;5.21;84.42;97802.44;4995037;28;20049;-53
2022/04/08 06:49:35;;;;;;;8.40;4.03;;;;;;;5.37;83.35;97800.81;4997021;28;20030;-50
2022/04/08 06:52:01;;;;;;;8.80;4.68;;;;;;;5.51;83.64;97802.06;4992152;28;20140;-52
2022/04/08 06:54:28;;;;;;;9.38;4.38;;;;;;;5.77;81.40;97794.47;4993934;28;20492;-53
2022/04/08 06:56:54;;;;;;;8.18;4.32;;;;;;;5.91;81.30;97792.22;4992731;28;20153;-51
2022/04/08 06:59:19;;;;;;;7.25;3.70;;;;;;;6.04;79.70;97792.72;4988895;28;20030;-52
2022/04/08 07:01:45;;;;;;;8.88;4.30;;;;;;;6.41;78.85;97769.94;4992060;28;20054;-54
2022/04/08 07:04:10;;;;;;;9.70;4.38;;;;;;;6.39;77.44;97774.72;4995355;28;20081;-53
2022/04/08 07:06:36;;;;;;;9.75;4.85;;;;;;;6.14;77.86;97765.44;4985606;28;20035;-53
2022/04/08 07:09:01;;;;;;;15.05;4.25;;;;;;;6.43;76.20;97765.19;4989843;28;20543;-52
2022/04/08 07:11:26;;;;;;;10.73;4.72;;;;;;;6.78;76.05;97771.91;4997789;28;20489;-51
2022/04/08 07:13:52;;;;;;;11.85;4.40;;;;;;;6.78;78.18;97779.88;4987564;28;20540;-50
2022/04/08 07:16:17;;;;;;;13.70;4.05;;;;;;;6.49;77.65;97774.84;4992548;28;20035;-53
2022/04/08 07:18:43;;;;;;;13.25;3.90;;;;;;;6.37;79.18;97776.84;4987501;28;20035;-53
2022/04/08 07:21:09;;;;;;;17.83;4.15;;;;;;;6.60;78.18;97776.53;4993058;28;20034;-50
2022/04/08 07:23:36;;;;;;;16.02;3.65;;;;;;;6.38;78.65;97765.94;4996143;28;20134;-52
2022/04/08 07:26:02;;;;;;;15.65;3.45;;;;;;;5.92;80.60;97762.75;4990878;28;20042;-54
2022/04/08 07:28:27;;;;;;;13.85;3.75;;;;;;;6.01;81.48;97753.28;4996333;28;20659;-52
2022/04/08 07:30:53;;;;;;;15.40;3.20;;;;;;;5.88;81.96;97758.16;4991315;28;20069;-53
2022/04/08 07:33:18;;;;;;;12.52;3.30;;;;;;;5.96;82.27;97755.09;5005684;28;20034;-52
2022/04/08 07:35:44;;;;;;;12.85;3.42;;;;;;;6.02;82.92;97749.59;4995939;28;20046;-52
2022/04/08 07:38:10;;;;;;;19.33;4.15;;;;;;;6.11;82.19;97751.81;4994665;28;20515;-53
2022/04/08 07:40:35;;;;;;;15.70;3.60;;;;;;;6.05;82.49;97748.28;4996088;28;20042;-53
2022/04/08 07:43:00;;;;;;;9.25;3.60;;;;;;;6.03;82.54;97753.84;4995286;28;20030;-52
2022/04/08 07:45:29;;;;;;;8.88;3.15;;;;;;;5.84;84.13;97757.84;4991210;28;20034;-50
2022/04/08 07:47:55;;;;;;;11.73;3.55;;;;;;;5.91;83.24;97757.66;4993880;28;20031;-50
2022/04/08 07:50:21;;;;;;;16.88;3.42;;;;;;;5.94;84.02;97757.19;4997781;28;20047;-54
2022/04/08 07:52:46;;;;;;;12.43;3.50;;;;;;;6.20;83.42;97755.63;4999210;28;20030;-51
2022/04/08 07:55:12;;;;;;;11.52;3.17;;;;;;;6.30;82.34;97754.94;4991947;28;20036;-53
2022/04/08 07:57:45;;;;;;;19.55;4.18;;;;;;;6.20;83.01;97761.75;5004386;28;20030;-51
2022/04/08 08:00:11;;;;;;;14.45;3.90;;;;;;;6.21;83.23;97757.22;4991344;28;20037;-55
2022/04/08 08:02:36;;;;;;;22.20;3.97;;;;;;;6.22;83.42;97757.00;4997908;28;20088;-52
2022/04/08 08:05:02;;;;;;;18.27;3.65;;;;;;;6.28;82.80;97757.03;4996044;28;20027;-52
2022/04/08 08:07:27;;;;;;;25.58;4.68;;;;;;;6.29;82.66;97742.69;4994551;28;20027;-52
2022/04/08 08:09:53;;;;;;;24.33;4.50;;;;;;;6.13;83.73;97747.84;4997038;28;20022;-53
2022/04/08 08:12:19;;;;;;;14.55;3.67;;;;;;;6.15;83.47;97748.41;4997593;28;20101;-52
2022/04/08 08:14:44;;;;;;;21.05;4.18;;;;;;;6.29;83.67;97737.34;4998778;28;20476;-53
2022/04/08 08:17:10;;;;;;;17.02;4.32;;;;;;;6.39;82.23;97737.44;4996737;28;20068;-52
2022/04/08 08:19:36;;;;;;;21.52;4.03;;;;;;;6.40;81.90;97739.06;4996896;28;20457;-53
2022/04/08 08:22:02;;;;;;;19.63;4.68;;;;;;;6.20;81.50;97745.78;4993304;28;20038;-50
2022/04/08 08:24:27;;;;;;;13.35;4.40;;;;;;;6.39;81.56;97740.13;4990724;28;20064;-51
2022/04/08 08:26:53;;;;;;;19.63;4.10;;;;;;;6.64;81.85;97740.38;4992473;28;20157;-51
2022/04/08 08:29:19;;;;;;;25.73;4.82;;;;;;;6.66;81.14;97730.28;4987855;28;20042;-51
2022/04/08 08:31:44;;;;;;;22.10;4.07;;;;;;;6.74;81.88;97725.53;4995554;28;20033;-51
2022/04/08 08:34:10;;;;;;;20.38;3.78;;;;;;;6.39;81.28;97714.31;4993160;28;20484;-51
2022/04/08 08:36:35;;;;;;;19.92;4.20;;;;;;;6.48;81.26;97722.66;4995267;28;20409;-51
2022/04/08 08:39:01;;;;;;;19.35;4.22;;;;;;;6.62;81.67;97726.50;4990164;28;20448;-53
2022/04/08 08:41:26;;;;;;;16.10;3.88;;;;;;;6.67;81.04;97721.22;4992256;28;20109;-53
2022/04/08 08:43:54;;;;;;;15.05;4.28;;;;;;;6.46;80.52;97716.75;4993306;28;20034;-50
2022/04/08 08:46:19;;;;;;;13.27;3.78;;;;;;;6.53;80.57;97717.38;4990039;28;20438;-52
2022/04/08 08:48:45;;;;;;;24.65;4.50;;;;;;;6.56;80.45;97706.19;4995831;28;20030;-53
2022/04/08 08:51:11;;;;;;;20.45;4.40;;;;;;;6.59;80.24;97704.88;4992595;28;20050;-52
2022/04/08 08:53:37;;;;;;;20.20;4.50;;;;;;;6.48;79.81;97696.03;4994981;28;20037;-55
2022/04/08 08:56:03;;;;;;;21.05;4.32;;;;;;;6.54;79.20;97699.53;4993980;28;20038;-55
2022/04/08 08:58:29;;;;;;;23.05;5.20;;;;;;;6.41;79.34;97692.75;4992242;28;20058;-54
2022/04/08 09:00:54;;;;;;;16.30;3.78;;;;;;;6.52;80.87;97689.16;5000038;28;20042;-49
2022/04/08 09:03:20;;;;;;;20.98;4.75;;;;;;;6.39;80.82;97694.88;5000496;28;20030;-55
2022/04/08 09:05:47;;;;;;;16.45;6.82;;;;;;;6.62;81.44;97685.78;4990952;28;20046;-51
2022/04/08 09:08:13;;;;;;;23.25;7.43;;;;;;;6.75;82.01;97687.19;4996364;28;20373;-53
2022/04/08 09:10:46;;;;;;;20.80;6.25;;;;;;;6.61;81.66;97674.28;4994955;28;20034;-52
2022/04/08 09:13:11;;;;;;;21.40;6.22;;;;;;;6.71;82.54;97681.56;4995269;28;20092;-50
2022/04/08 09:15:39;;;;;;;27.33;10.98;;;;;;;6.76;82.37;97673.59;4989914;28;20050;-52
2022/04/08 09:18:12;;;;;;;25.23;5.50;;;;;;;6.63;82.01;97674.84;4996679;28;20707;-52
2022/04/08 09:20:44;;;;;;;92.85;39.92;;;;;;;6.47;83.41;97665.94;4993936;28;20046;-52
2022/04/08 09:23:11;;;;;;;25.48;6.05;;;;;;;6.24;84.57;97661.78;4993236;28;20030;-54
2022/04/08 09:25:37;;;;;;;28.02;5.28;;;;;;;5.92;85.60;97659.03;4996154;28;20042;-54
2022/04/08 09:28:10;;;;;;;17.50;4.45;;;;;;;6.04;86.58;97651.75;4990153;28;20398;-51
2022/04/08 09:30:36;;;;;;;34.67;5.00;;;;;;;5.72;87.95;97643.66;4995117;28;20130;-52
2022/04/08 09:33:23;;;;;;;27.38;9.10;;;;;;;5.92;90.01;97643.06;4994987;28;20026;-50
2022/04/08 09:35:50;;;;;;;29.33;7.57;;;;;;;5.57;89.95;97635.53;4997007;28;20389;-53
2022/04/08 09:38:20;;;;;;;24.75;6.45;;;;;;;5.74;90.07;97632.78;4988854;28;20566;-53
2022/04/08 09:40:47;;;;;;;34.97;7.75;;;;;;;5.67;90.73;97622.34;4992724;28;20046;-54
2022/04/08 09:43:13;;;;;;;22.10;7.55;;;;;;;5.53;90.54;97623.78;4995967;28;20073;-55
2022/04/08 09:45:38;;;;;;;32.80;8.50;;;;;;;5.51;91.53;97623.22;4992386;28;20511;-54
2022/04/08 09:48:05;;;;;;;64.65;22.83;;;;;;;5.48;92.12;97623.72;4997536;28;20030;-53
2022/04/08 09:50:31;;;;;;;89.88;32.47;;;;;;;5.57;91.21;97614.28;4992932;28;20042;-54
2022/04/08 09:52:56;;;;;;;66.50;24.70;;;;;;;5.57;91.04;97606.28;4993075;28;20038;-51
2022/04/08 09:55:23;;;;;;;67.70;22.85;;;;;;;5.78;91.09;97604.63;4998369;28;20499;-51
2022/04/08 09:57:53;;;;;;;54.42;18.15;;;;;;;5.75;90.29;97600.63;4996730;28;20033;-53
2022/04/08 10:00:18;;;;;;;19.07;5.97;;;;;;;5.62;91.36;97603.69;4993762;28;20037;-53
2022/04/08 10:02:48;;;;;;;278.65;76.38;;;;;;;5.66;93.06;97606.63;4998199;28;20034;-54
2022/04/08 10:05:13;;;;;;;157.00;41.73;;;;;;;5.57;93.50;97608.97;4997475;28;20026;-54
2022/04/08 10:07:39;;;;;;;34.83;9.98;;;;;;;5.63;93.82;97610.59;4989078;28;20038;-52
2022/04/08 10:10:27;;;;;;;226.02;59.00;;;;;;;5.51;93.34;97604.63;4975085;28;20038;-54
2022/04/08 10:13:19;;;;;;;79.07;22.25;;;;;;;5.44;93.75;97604.81;4988500;28;20034;-52
2022/04/08 10:15:51;;;;;;;290.92;70.55;;;;;;;5.50;95.98;97613.66;4971727;28;20042;-54
2022/04/08 10:18:16;;;;;;;35.42;11.00;;;;;;;5.34;96.55;97621.47;4994470;28;20037;-54
2022/04/08 10:20:44;;;;;;;21.55;7.10;;;;;;;4.70;91.38;97626.44;4998368;28;20037;-52
2022/04/08 10:23:13;;;;;;;9.80;3.15;;;;;;;4.39;87.13;97625.16;4996970;28;20084;-53
2022/04/08 10:25:43;;;;;;;7.10;2.13;;;;;;;3.84;89.37;97613.38;4993200;28;20046;-54
2022/04/08 10:28:09;;;;;;;45.28;13.77;;;;;;;3.80;92.93;97614.94;4992574;28;20089;-53
2022/04/08 10:30:42;;;;;;;448.85;123.30;;;;;;;4.02;94.27;97617.66;4990766;28;20064;-52
2022/04/08 10:33:08;;;;;;;85.32;24.92;;;;;;;3.90;93.39;97617.75;4990710;28;20068;-52
2022/04/08 10:35:34;;;;;;;922.35;316.38;;;;;;;3.88;93.03;97625.13;4989107;28;20046;-52
2022/04/08 10:38:01;;;;;;;211.00;55.58;;;;;;;3.76;91.57;97625.19;4996402;28;20030;-52
2022/04/08 10:40:31;;;;;;;401.65;135.63;;;;;;;3.75;90.95;97625.44;4991980;28;20053;-52
2022/04/08 10:42:57;;;;;;;79.50;55.55;;;;;;;3.79;92.37;97615.94;4977734;28;20128;-52
2022/04/08 10:45:23;;;;;;;55.17;36.10;;;;;;;3.67;91.73;97616.81;4994050;28;20405;-53
2022/04/08 10:47:48;;;;;;;1.80;1.45;;;;;;;3.48;91.36;97602.16;4998995;28;20080;-51
2022/04/08 10:50:34;;;;;;;5.90;3.25;;;;;;;2.98;92.92;97594.81;4991618;28;20054;-53
2022/04/08 10:53:09;;;;;;;6.78;2.60;;;;;;;3.10;94.42;97586.84;4993603;28;20046;-51
2022/04/08 10:55:48;;;;;;;2.70;1.80;;;;;;;2.95;94.20;97579.41;4996743;28;20045;-51
2022/04/08 10:58:15;;;;;;;6.40;1.42;;;;;;;2.76;94.95;97576.09;4997225;28;20042;-52
2022/04/08 11:00:40;;;;;;;8.38;4.38;;;;;;;2.88;96.91;97570.78;4987659;28;20046;-53
2022/04/08 11:03:07;;;;;;;18.75;9.55;;;;;;;3.11;97.35;97562.78;4992782;28;20093;-51
2022/04/08 11:05:38;;;;;;;43.17;17.40;;;;;;;3.16;96.06;97567.38;4986835;28;20042;-53
2022/04/08 11:08:03;;;;;;;;;;;;;;;3.01;93.75;97568.66;4995295;28;20019;-52
2022/04/08 11:10:31;;;;;;;22.15;11.90;;;;;;;3.11;95.26;97562.78;4992379;28;19928;-52
2022/04/08 11:12:56;;;;;;;3.30;2.20;;;;;;;2.86;95.92;97559.63;4990750;28;20035;-50
2022/04/08 11:15:23;;;;;;;10.93;6.75;;;;;;;2.95;96.74;97558.22;4991137;28;20046;-53
2022/04/08 11:17:49;;;;;;;65.90;34.42;;;;;;;3.22;96.70;97558.47;4999969;28;20439;-53
2022/04/08 11:20:16;;;;;;;12.38;6.97;;;;;;;3.59;96.38;97550.94;4992979;28;20034;-50
2022/04/08 11:22:42;;;;;;;7.45;2.25;;;;;;;3.78;93.78;97548.09;4992240;28;20034;-54
2022/04/08 11:25:19;;;;;;;17.58;8.60;;;;;;;4.22;94.85;97548.25;4989715;28;20397;-51
2022/04/08 11:27:44;;;;;;;5.75;2.30;;;;;;;4.13;93.21;97539.13;4991907;28;20050;-51
2022/04/08 11:30:10;;;;;;;8.82;3.90;;;;;;;4.04;93.07;97534.22;5001060;28;20040;-53
2022/04/08 11:32:39;;;;;;;3.13;1.88;;;;;;;4.18;92.42;97534.69;4984051;28;20038;-53